sensor_id;sensor_type;location;lat;lon;timestamp;pressure;altitude;pressure_sealevel;temperature;humidity
30819;BME280;17546;42.674;23.284;2022-07-23T00:01:30;95015.56;;;31.52;31.36
30819;BME280;17546;42.674;23.284;2022-07-23T00:03:55;95015.34;;;31.47;31.63
30819;BME280;17546;42.674;23.284;2022-07-23T00:06:22;95018.63;;;31.42;31.81
30819;BME280;17546;42.674;23.284;2022-07-23T00:08:48;95020.38;;;31.35;31.82
30819;BME280;17546;42.674;23.284;2022-07-23T00:11:13;95014.56;;;31.33;32.27
30819;BME280;17546;42.674;23.284;2022-07-23T00:13:39;95023.16;;;31.33;31.93
30819;BME280;17546;42.674;23.284;2022-07-23T00:16:04;95022.25;;;31.30;32.13
30819;BME280;17546;42.674;23.284;2022-07-23T00:18:30;95020.38;;;31.35;32.10
30819;BME280;17546;42.674;23.284;2022-07-23T00:20:55;95027.25;;;31.30;31.57
30819;BME280;17546;42.674;23.284;2022-07-23T00:23:21;95023.44;;;31.25;31.75
30819;BME280;17546;42.674;23.284;2022-07-23T00:25:46;95016.13;;;31.22;31.63
30819;BME280;17546;42.674;23.284;2022-07-23T00:28:12;95032.63;;;31.24;31.53
30819;BME280;17546;42.674;23.284;2022-07-23T00:30:37;95026.16;;;31.23;30.12
30819;BME280;17546;42.674;23.284;2022-07-23T00:33:07;95026.78;;;31.22;30.07
30819;BME280;17546;42.674;23.284;2022-07-23T00:35:35;95027.84;;;31.15;30.38
30819;BME280;17546;42.674;23.284;2022-07-23T00:38:09;95023.03;;;31.05;30.75
30819;BME280;17546;42.674;23.284;2022-07-23T00:40:36;95029.56;;;30.94;30.80
30819;BME280;17546;42.674;23.284;2022-07-23T00:43:02;95026.69;;;30.94;30.82
30819;BME280;17546;42.674;23.284;2022-07-23T00:45:44;95031.69;;;30.82;31.28
30819;BME280;17546;42.674;23.284;2022-07-23T00:48:09;95022.13;;;30.89;31.18
30819;BME280;17546;42.674;23.284;2022-07-23T00:50:35;95030.72;;;30.89;31.36
30819;BME280;17546;42.674;23.284;2022-07-23T00:53:00;95023.13;;;30.82;31.36
30819;BME280;17546;42.674;23.284;2022-07-23T00:55:26;95027.19;;;30.65;31.76
30819;BME280;17546;42.674;23.284;2022-07-23T00:57:53;95029.63;;;30.71;32.02
30819;BME280;17546;42.674;23.284;2022-07-23T01:00:19;95023.66;;;30.66;32.18
30819;BME280;17546;42.674;23.284;2022-07-23T01:02:45;95026.41;;;30.64;32.01
30819;BME280;17546;42.674;23.284;2022-07-23T01:05:11;95020.69;;;30.64;32.36
30819;BME280;17546;42.674;23.284;2022-07-23T01:07:37;95010.28;;;30.57;32.43
30819;BME280;17546;42.674;23.284;2022-07-23T01:10:03;95018.50;;;30.51;32.42
30819;BME280;17546;42.674;23.284;2022-07-23T01:12:29;95019.22;;;30.63;32.01
30819;BME280;17546;42.674;23.284;2022-07-23T01:14:55;95018.84;;;30.57;32.40
30819;BME280;17546;42.674;23.284;2022-07-23T01:17:21;95025.44;;;30.60;32.22
30819;BME280;17546;42.674;23.284;2022-07-23T01:19:47;95018.97;;;30.59;32.39
30819;BME280;17546;42.674;23.284;2022-07-23T01:22:14;95013.38;;;30.61;32.29
30819;BME280;17546;42.674;23.284;2022-07-23T01:24:40;95014.97;;;30.64;32.33
30819;BME280;17546;42.674;23.284;2022-07-23T01:27:07;95012.53;;;30.59;32.26
30819;BME280;17546;42.674;23.284;2022-07-23T01:29:32;95011.91;;;30.60;32.19
30819;BME280;17546;42.674;23.284;2022-07-23T01:31:57;95013.38;;;30.61;32.23
30819;BME280;17546;42.674;23.284;2022-07-23T01:34:48;95027.66;;;30.61;32.04
30819;BME280;17546;42.674;23.284;2022-07-23T01:37:14;95020.47;;;30.60;31.80
30819;BME280;17546;42.674;23.284;2022-07-23T01:39:39;95012.78;;;30.51;32.30
30819;BME280;17546;42.674;23.284;2022-07-23T01:42:05;95012.06;;;30.51;32.15
30819;BME280;17546;42.674;23.284;2022-07-23T01:44:30;95008.81;;;30.56;31.76
30819;BME280;17546;42.674;23.284;2022-07-23T01:46:56;95018.75;;;30.55;32.08
30819;BME280;17546;42.674;23.284;2022-07-23T01:49:22;95018.75;;;30.55;32.20
30819;BME280;17546;42.674;23.284;2022-07-23T01:51:47;95009.34;;;30.41;32.54
30819;BME280;17546;42.674;23.284;2022-07-23T01:54:26;95022.88;;;30.40;32.08
30819;BME280;17546;42.674;23.284;2022-07-23T01:56:52;95016.94;;;30.36;32.38
30819;BME280;17546;42.674;23.284;2022-07-23T01:59:17;95016.81;;;30.34;32.62
30819;BME280;17546;42.674;23.284;2022-07-23T02:01:43;95022.75;;;30.26;32.59
30819;BME280;17546;42.674;23.284;2022-07-23T02:04:08;95014.94;;;30.27;32.63
30819;BME280;17546;42.674;23.284;2022-07-23T02:06:33;95014.81;;;30.25;32.46
30819;BME280;17546;42.674;23.284;2022-07-23T02:08:59;95015.72;;;30.27;32.71
30819;BME280;17546;42.674;23.284;2022-07-23T02:11:24;95017.78;;;30.27;32.74
30819;BME280;17546;42.674;23.284;2022-07-23T02:13:50;95014.19;;;30.26;32.72
30819;BME280;17546;42.674;23.284;2022-07-23T02:16:15;95016.34;;;30.14;32.67
30819;BME280;17546;42.674;23.284;2022-07-23T02:18:41;95018.19;;;30.21;32.51
30819;BME280;17546;42.674;23.284;2022-07-23T02:21:06;95021.66;;;30.20;32.31
30819;BME280;17546;42.674;23.284;2022-07-23T02:23:32;95013.09;;;30.20;32.33
30819;BME280;17546;42.674;23.284;2022-07-23T02:25:57;95017.31;;;30.19;32.54
30819;BME280;17546;42.674;23.284;2022-07-23T02:28:22;95016.81;;;30.22;32.31
30819;BME280;17546;42.674;23.284;2022-07-23T02:30:48;95019.31;;;30.28;32.32
30819;BME280;17546;42.674;23.284;2022-07-23T02:33:13;95023.28;;;30.35;32.01
30819;BME280;17546;42.674;23.284;2022-07-23T02:35:39;95018.31;;;30.23;32.58
30819;BME280;17546;42.674;23.284;2022-07-23T02:38:04;95020.53;;;30.25;32.10
30819;BME280;17546;42.674;23.284;2022-07-23T02:40:30;95017.31;;;30.31;31.93
30819;BME280;17546;42.674;23.284;2022-07-23T02:42:55;95021.78;;;30.34;31.68
30819;BME280;17546;42.674;23.284;2022-07-23T02:45:21;95027.97;;;30.18;31.65
30819;BME280;17546;42.674;23.284;2022-07-23T02:47:46;95023.78;;;30.19;31.34
30819;BME280;17546;42.674;23.284;2022-07-23T02:50:12;95027.53;;;30.10;31.12
30819;BME280;17546;42.674;23.284;2022-07-23T02:52:37;95018.97;;;30.10;30.98
30819;BME280;17546;42.674;23.284;2022-07-23T02:55:03;95028.03;;;29.95;31.14
30819;BME280;17546;42.674;23.284;2022-07-23T02:57:29;95029.75;;;30.00;30.75
30819;BME280;17546;42.674;23.284;2022-07-23T02:59:55;95032.38;;;29.96;30.86
30819;BME280;17546;42.674;23.284;2022-07-23T03:02:21;95034.50;;;29.83;31.15
30819;BME280;17546;42.674;23.284;2022-07-23T03:04:46;95041.44;;;29.80;30.90
30819;BME280;17546;42.674;23.284;2022-07-23T03:07:12;95042.06;;;29.79;31.08
30819;BME280;17546;42.674;23.284;2022-07-23T03:09:37;95039.94;;;29.79;31.40
30819;BME280;17546;42.674;23.284;2022-07-23T03:12:03;95049.38;;;29.70;31.31
30819;BME280;17546;42.674;23.284;2022-07-23T03:14:28;95040.19;;;29.72;30.69
30819;BME280;17546;42.674;23.284;2022-07-23T03:16:54;95050.56;;;29.55;30.04
30819;BME280;17546;42.674;23.284;2022-07-23T03:19:20;95045.97;;;29.38;30.92
30819;BME280;17546;42.674;23.284;2022-07-23T03:21:45;95052.78;;;29.45;30.74
30819;BME280;17546;42.674;23.284;2022-07-23T03:24:11;95059.75;;;29.42;31.02
30819;BME280;17546;42.674;23.284;2022-07-23T03:26:36;95054.97;;;29.23;30.85
30819;BME280;17546;42.674;23.284;2022-07-23T03:29:03;95054.00;;;29.30;31.37
30819;BME280;17546;42.674;23.284;2022-07-23T03:31:30;95062.94;;;29.36;31.27
30819;BME280;17546;42.674;23.284;2022-07-23T03:33:56;95060.47;;;29.42;31.44
30819;BME280;17546;42.674;23.284;2022-07-23T03:36:22;95068.44;;;29.56;31.60
30819;BME280;17546;42.674;23.284;2022-07-23T03:38:47;95064.25;;;29.57;32.35
30819;BME280;17546;42.674;23.284;2022-07-23T03:41:13;95065.31;;;29.52;32.80
30819;BME280;17546;42.674;23.284;2022-07-23T03:43:38;95068.06;;;29.50;32.74
30819;BME280;17546;42.674;23.284;2022-07-23T03:46:03;95070.91;;;29.50;32.67
30819;BME280;17546;42.674;23.284;2022-07-23T03:48:29;95064.25;;;29.57;32.68
30819;BME280;17546;42.674;23.284;2022-07-23T03:50:54;95065.13;;;29.71;32.68
30819;BME280;17546;42.674;23.284;2022-07-23T03:53:20;95067.13;;;29.69;33.23
30819;BME280;17546;42.674;23.284;2022-07-23T03:55:45;95066.84;;;29.64;33.13
30819;BME280;17546;42.674;23.284;2022-07-23T03:58:10;95071.41;;;29.58;33.31
30819;BME280;17546;42.674;23.284;2022-07-23T04:00:36;95071.91;;;29.54;33.59
30819;BME280;17546;42.674;23.284;2022-07-23T04:03:01;95069.56;;;29.51;33.19
30819;BME280;17546;42.674;23.284;2022-07-23T04:05:27;95069.28;;;29.46;33.67
30819;BME280;17546;42.674;23.284;2022-07-23T04:07:52;95060.75;;;29.46;33.84
30819;BME280;17546;42.674;23.284;2022-07-23T04:10:19;95068.06;;;29.50;33.65
30819;BME280;17546;42.674;23.284;2022-07-23T04:12:44;95064.94;;;29.45;33.78
30819;BME280;17546;42.674;23.284;2022-07-23T04:15:10;95077.34;;;29.38;33.94
30819;BME280;17546;42.674;23.284;2022-07-23T04:17:35;95079.78;;;29.32;34.18
30819;BME280;17546;42.674;23.284;2022-07-23T04:20:02;95071.09;;;29.30;34.46
30819;BME280;17546;42.674;23.284;2022-07-23T04:22:27;95082.78;;;29.34;34.29
30819;BME280;17546;42.674;23.284;2022-07-23T04:24:53;95078.56;;;29.35;34.50
30819;BME280;17546;42.674;23.284;2022-07-23T04:27:18;95079.09;;;29.43;34.26
30819;BME280;17546;42.674;23.284;2022-07-23T04:29:44;95080.47;;;29.54;34.09
30819;BME280;17546;42.674;23.284;2022-07-23T04:32:09;95079.59;;;29.52;33.59
30819;BME280;17546;42.674;23.284;2022-07-23T04:34:35;95086.56;;;29.49;33.45
30819;BME280;17546;42.674;23.284;2022-07-23T04:37:00;95090.13;;;29.37;33.57
30819;BME280;17546;42.674;23.284;2022-07-23T04:39:26;95088.00;;;29.26;34.08
30819;BME280;17546;42.674;23.284;2022-07-23T04:41:51;95076.59;;;29.04;34.09
30819;BME280;17546;42.674;23.284;2022-07-23T04:44:16;95088.59;;;28.48;34.75
30819;BME280;17546;42.674;23.284;2022-07-23T04:46:42;95085.28;;;28.20;34.95
30819;BME280;17546;42.674;23.284;2022-07-23T04:49:07;95091.06;;;27.60;36.13
30819;BME280;17546;42.674;23.284;2022-07-23T04:51:33;95094.25;;;27.45;37.03
30819;BME280;17546;42.674;23.284;2022-07-23T04:53:58;95087.56;;;27.30;37.21
30819;BME280;17546;42.674;23.284;2022-07-23T04:56:24;95088.47;;;27.23;37.48
30819;BME280;17546;42.674;23.284;2022-07-23T04:58:49;95091.28;;;27.33;37.20
30819;BME280;17546;42.674;23.284;2022-07-23T05:01:15;95097.69;;;27.53;36.95
30819;BME280;17546;42.674;23.284;2022-07-23T05:03:40;95089.97;;;27.75;36.71
30819;BME280;17546;42.674;23.284;2022-07-23T05:06:06;95095.69;;;28.06;37.53
30819;BME280;17546;42.674;23.284;2022-07-23T05:08:31;95088.44;;;28.25;36.76
30819;BME280;17546;42.674;23.284;2022-07-23T05:10:57;95094.56;;;28.52;36.33
30819;BME280;17546;42.674;23.284;2022-07-23T05:13:22;95092.03;;;28.68;35.70
30819;BME280;17546;42.674;23.284;2022-07-23T05:15:48;95097.69;;;28.78;35.37
30819;BME280;17546;42.674;23.284;2022-07-23T05:18:13;95104.66;;;28.87;35.30
30819;BME280;17546;42.674;23.284;2022-07-23T05:20:39;95098.53;;;29.02;34.62
30819;BME280;17546;42.674;23.284;2022-07-23T05:23:04;95100.34;;;29.19;34.04
30819;BME280;17546;42.674;23.284;2022-07-23T05:25:30;95105.59;;;29.34;34.32
30819;BME280;17546;42.674;23.284;2022-07-23T05:27:55;95105.72;;;29.36;34.49
30819;BME280;17546;42.674;23.284;2022-07-23T05:30:21;95101.47;;;29.59;34.21
30819;BME280;17546;42.674;23.284;2022-07-23T05:32:46;95096.53;;;29.71;33.30
30819;BME280;17546;42.674;23.284;2022-07-23T05:35:12;95100.75;;;29.70;33.60
30819;BME280;17546;42.674;23.284;2022-07-23T05:37:37;95088.72;;;29.72;33.44
30819;BME280;17546;42.674;23.284;2022-07-23T05:40:08;95098.38;;;29.66;32.82
30819;BME280;17546;42.674;23.284;2022-07-23T05:42:34;95094.59;;;29.40;33.25
30819;BME280;17546;42.674;23.284;2022-07-23T05:45:00;95104.66;;;29.41;33.44
30819;BME280;17546;42.674;23.284;2022-07-23T05:47:25;95103.00;;;29.38;33.61
30819;BME280;17546;42.674;23.284;2022-07-23T05:49:51;95103.75;;;29.72;33.34
30819;BME280;17546;42.674;23.284;2022-07-23T05:52:16;95094.56;;;29.85;33.09
30819;BME280;17546;42.674;23.284;2022-07-23T05:54:42;95092.47;;;29.98;33.42
30819;BME280;17546;42.674;23.284;2022-07-23T05:57:07;95105.97;;;30.09;33.13
30819;BME280;17546;42.674;23.284;2022-07-23T05:59:33;95094.56;;;29.85;32.54
30819;BME280;17546;42.674;23.284;2022-07-23T06:01:59;95100.63;;;29.80;32.66
30819;BME280;17546;42.674;23.284;2022-07-23T06:04:24;95095.69;;;30.04;32.57
30819;BME280;17546;42.674;23.284;2022-07-23T06:06:49;95086.13;;;30.11;32.18
30819;BME280;17546;42.674;23.284;2022-07-23T06:09:15;95098.31;;;30.35;32.32
30819;BME280;17546;42.674;23.284;2022-07-23T06:11:40;95089.47;;;30.43;32.27
30819;BME280;17546;42.674;23.284;2022-07-23T06:14:06;95069.00;;;29.99;32.30
30819;BME280;17546;42.674;23.284;2022-07-23T06:16:32;95085.84;;;30.54;32.10
30819;BME280;17546;42.674;23.284;2022-07-23T06:18:57;95083.38;;;30.60;32.06
30819;BME280;17546;42.674;23.284;2022-07-23T06:21:23;95090.00;;;30.77;32.10
30819;BME280;17546;42.674;23.284;2022-07-23T06:23:48;95087.50;;;30.83;32.09
30819;BME280;17546;42.674;23.284;2022-07-23T06:26:14;95091.81;;;30.58;32.35
30819;BME280;17546;42.674;23.284;2022-07-23T06:28:39;95088.06;;;30.67;32.10
30819;BME280;17546;42.674;23.284;2022-07-23T06:31:04;95087.44;;;30.57;32.72
30819;BME280;17546;42.674;23.284;2022-07-23T06:33:30;95089.09;;;30.60;32.35
30819;BME280;17546;42.674;23.284;2022-07-23T06:35:55;95091.22;;;30.97;31.75
30819;BME280;17546;42.674;23.284;2022-07-23T06:38:21;95091.47;;;31.27;32.25
30819;BME280;17546;42.674;23.284;2022-07-23T06:40:46;95087.91;;;31.15;31.01
30819;BME280;17546;42.674;23.284;2022-07-23T06:43:14;95080.16;;;31.29;31.08
30819;BME280;17546;42.674;23.284;2022-07-23T06:45:39;95088.56;;;31.78;31.30
30819;BME280;17546;42.674;23.284;2022-07-23T06:48:05;95091.41;;;32.31;30.83
30819;BME280;17546;42.674;23.284;2022-07-23T06:50:30;95089.53;;;31.83;29.99
30819;BME280;17546;42.674;23.284;2022-07-23T06:52:56;95081.22;;;32.28;30.78
30819;BME280;17546;42.674;23.284;2022-07-23T06:55:21;95090.50;;;32.98;30.49
30819;BME280;17546;42.674;23.284;2022-07-23T06:57:47;95082.41;;;33.08;29.36
30819;BME280;17546;42.674;23.284;2022-07-23T07:00:12;95091.22;;;33.42;29.10
30819;BME280;17546;42.674;23.284;2022-07-23T07:02:38;95083.13;;;33.84;28.43
30819;BME280;17546;42.674;23.284;2022-07-23T07:05:03;95085.22;;;34.13;28.90
30819;BME280;17546;42.674;23.284;2022-07-23T07:07:29;95090.22;;;34.29;28.57
30819;BME280;17546;42.674;23.284;2022-07-23T07:09:54;95087.72;;;34.21;27.19
30819;BME280;17546;42.674;23.284;2022-07-23T07:12:20;95071.09;;;34.35;27.01
30819;BME280;17546;42.674;23.284;2022-07-23T07:14:45;95032.97;;;34.35;27.12
30819;BME280;17546;42.674;23.284;2022-07-23T07:17:11;95077.75;;;34.90;27.16
30819;BME280;17546;42.674;23.284;2022-07-23T07:19:36;95066.13;;;34.88;26.89
30819;BME280;17546;42.674;23.284;2022-07-23T07:22:02;95073.34;;;35.41;26.43
30819;BME280;17546;42.674;23.284;2022-07-23T07:24:27;95075.09;;;35.66;26.91
30819;BME280;17546;42.674;23.284;2022-07-23T07:26:53;95073.34;;;35.76;26.65
30819;BME280;17546;42.674;23.284;2022-07-23T07:29:18;95072.28;;;35.68;25.42
30819;BME280;17546;42.674;23.284;2022-07-23T07:31:44;95065.34;;;35.57;25.44
30819;BME280;17546;42.674;23.284;2022-07-23T07:34:09;95068.03;;;35.89;25.43
30819;BME280;17546;42.674;23.284;2022-07-23T07:36:36;95057.63;;;35.99;24.65
30819;BME280;17546;42.674;23.284;2022-07-23T07:39:03;95058.03;;;36.30;24.99
30819;BME280;17546;42.674;23.284;2022-07-23T07:41:30;95067.63;;;36.56;25.15
30819;BME280;17546;42.674;23.284;2022-07-23T07:43:55;95057.31;;;36.29;24.49
30819;BME280;17546;42.674;23.284;2022-07-23T07:46:21;95061.38;;;36.04;24.83
30819;BME280;17546;42.674;23.284;2022-07-23T07:48:51;95055.97;;;35.56;25.00
30819;BME280;17546;42.674;23.284;2022-07-23T07:51:17;95066.06;;;36.33;24.52
30819;BME280;17546;42.674;23.284;2022-07-23T07:53:42;95052.97;;;36.50;24.63
30819;BME280;17546;42.674;23.284;2022-07-23T07:56:08;95058.31;;;37.00;24.32
30819;BME280;17546;42.674;23.284;2022-07-23T07:58:33;95057.84;;;37.30;23.64
30819;BME280;17546;42.674;23.284;2022-07-23T08:00:59;95044.84;;;37.53;23.40
30819;BME280;17546;42.674;23.284;2022-07-23T08:03:26;95055.69;;;37.76;24.29
30819;BME280;17546;42.674;23.284;2022-07-23T08:05:51;95054.47;;;37.83;22.79
30819;BME280;17546;42.674;23.284;2022-07-23T08:08:17;95053.25;;;37.67;22.79
30819;BME280;17546;42.674;23.284;2022-07-23T08:10:42;95054.22;;;37.99;22.84
30819;BME280;17546;42.674;23.284;2022-07-23T08:13:12;95050.63;;;38.01;22.78
30819;BME280;17546;42.674;23.284;2022-07-23T08:15:38;95045.38;;;38.43;23.13
30819;BME280;17546;42.674;23.284;2022-07-23T08:18:04;95047.44;;;38.67;23.29
30819;BME280;17546;42.674;23.284;2022-07-23T08:20:29;95050.94;;;38.90;21.85
30819;BME280;17546;42.674;23.284;2022-07-23T08:22:56;95046.06;;;38.96;22.20
30819;BME280;17546;42.674;23.284;2022-07-23T08:25:30;95049.03;;;39.00;21.75
30819;BME280;17546;42.674;23.284;2022-07-23T08:27:57;95032.16;;;38.91;22.10
30819;BME280;17546;42.674;23.284;2022-07-23T08:30:23;95047.56;;;39.28;21.51
30819;BME280;17546;42.674;23.284;2022-07-23T08:35:25;95028.59;;;39.22;20.99
30819;BME280;17546;42.674;23.284;2022-07-23T08:37:51;95041.25;;;39.07;20.75
30819;BME280;17546;42.674;23.284;2022-07-23T08:40:17;95043.88;;;39.25;21.27
30819;BME280;17546;42.674;23.284;2022-07-23T08:42:44;95037.03;;;38.03;21.58
30819;BME280;17546;42.674;23.284;2022-07-23T08:45:12;95030.84;;;38.68;21.31
30819;BME280;17546;42.674;23.284;2022-07-23T08:47:39;95037.66;;;38.80;20.99
30819;BME280;17546;42.674;23.284;2022-07-23T08:50:07;95039.66;;;39.30;20.97
30819;BME280;17546;42.674;23.284;2022-07-23T08:52:32;95029.72;;;39.70;21.16
30819;BME280;17546;42.674;23.284;2022-07-23T08:54:58;95028.03;;;39.93;21.91
30819;BME280;17546;42.674;23.284;2022-07-23T08:57:24;95023.94;;;40.04;20.58
30819;BME280;17546;42.674;23.284;2022-07-23T08:59:49;95026.41;;;40.18;20.65
30819;BME280;17546;42.674;23.284;2022-07-23T09:02:15;95022.09;;;40.21;21.67
30819;BME280;17546;42.674;23.284;2022-07-23T09:04:40;95024.19;;;40.53;20.87
30819;BME280;17546;42.674;23.284;2022-07-23T09:07:05;95015.50;;;40.55;19.24
30819;BME280;17546;42.674;23.284;2022-07-23T09:09:31;95016.91;;;40.52;19.75
30819;BME280;17546;42.674;23.284;2022-07-23T09:12:08;95026.44;;;40.56;19.38
30819;BME280;17546;42.674;23.284;2022-07-23T09:14:44;95020.25;;;40.74;20.10
30819;BME280;17546;42.674;23.284;2022-07-23T09:17:15;95010.53;;;41.00;20.53
30819;BME280;17546;42.674;23.284;2022-07-23T09:19:42;95020.41;;;41.27;19.93
30819;BME280;17546;42.674;23.284;2022-07-23T09:22:23;95017.19;;;41.53;19.54
30819;BME280;17546;42.674;23.284;2022-07-23T09:25:08;95019.00;;;41.77;18.07
30819;BME280;17546;42.674;23.284;2022-07-23T09:27:56;95017.47;;;41.71;18.10
30819;BME280;17546;42.674;23.284;2022-07-23T09:30:24;95009.56;;;41.78;19.84
30819;BME280;17546;42.674;23.284;2022-07-23T09:36:01;95006.19;;;41.47;17.08
30819;BME280;17546;42.674;23.284;2022-07-23T09:38:27;94999.69;;;41.49;18.06
30819;BME280;17546;42.674;23.284;2022-07-23T09:41:11;94998.78;;;40.92;18.04
30819;BME280;17546;42.674;23.284;2022-07-23T09:43:39;95006.22;;;40.26;18.25
30819;BME280;17546;42.674;23.284;2022-07-23T09:48:47;94990.81;;;41.37;18.01
30819;BME280;17546;42.674;23.284;2022-07-23T09:51:13;94997.66;;;41.13;17.30
30819;BME280;17546;42.674;23.284;2022-07-23T09:53:42;94993.63;;;41.81;18.22
30819;BME280;17546;42.674;23.284;2022-07-23T09:56:08;94994.50;;;41.41;17.51
30819;BME280;17546;42.674;23.284;2022-07-23T09:58:35;94987.38;;;41.53;16.72
30819;BME280;17546;42.674;23.284;2022-07-23T10:01:09;94987.91;;;41.37;17.13
30819;BME280;17546;42.674;23.284;2022-07-23T10:03:35;94982.03;;;41.85;17.20
30819;BME280;17546;42.674;23.284;2022-07-23T10:06:00;94980.25;;;42.17;17.69
30819;BME280;17546;42.674;23.284;2022-07-23T10:08:26;94984.78;;;42.32;16.47
30819;BME280;17546;42.674;23.284;2022-07-23T10:10:53;94979.31;;;42.00;15.21
30819;BME280;17546;42.674;23.284;2022-07-23T10:13:19;94975.72;;;42.01;15.56
30819;BME280;17546;42.674;23.284;2022-07-23T10:16:18;94972.88;;;42.07;17.19
30819;BME280;17546;42.674;23.284;2022-07-23T10:18:43;94966.63;;;42.36;16.93
30819;BME280;17546;42.674;23.284;2022-07-23T10:21:09;94967.31;;;42.30;15.39
30819;BME280;17546;42.674;23.284;2022-07-23T10:23:41;94967.47;;;42.44;17.22
30819;BME280;17546;42.674;23.284;2022-07-23T10:26:16;94966.81;;;42.50;16.05
30819;BME280;17546;42.674;23.284;2022-07-23T10:31:26;94965.47;;;42.61;16.38
30819;BME280;17546;42.674;23.284;2022-07-23T10:33:58;94957.56;;;42.72;15.67
30819;BME280;17546;42.674;23.284;2022-07-23T10:36:50;94959.00;;;42.69;14.91
30819;BME280;17546;42.674;23.284;2022-07-23T10:39:24;94954.38;;;41.82;15.15
30819;BME280;17546;42.674;23.284;2022-07-23T10:41:50;94954.25;;;42.35;15.49
30819;BME280;17546;42.674;23.284;2022-07-23T10:44:18;94952.56;;;42.14;14.65
30819;BME280;17546;42.674;23.284;2022-07-23T10:46:59;94946.56;;;42.62;15.77
30819;BME280;17546;42.674;23.284;2022-07-23T10:49:34;94947.38;;;42.75;14.82
30819;BME280;17546;42.674;23.284;2022-07-23T10:54:45;94943.19;;;42.95;14.61
30819;BME280;17546;42.674;23.284;2022-07-23T10:57:12;94932.25;;;42.93;14.22
30819;BME280;17546;42.674;23.284;2022-07-23T11:02:40;94934.28;;;42.74;13.24
30819;BME280;17546;42.674;23.284;2022-07-23T11:05:25;94930.69;;;42.80;13.32
30819;BME280;17546;42.674;23.284;2022-07-23T11:18:54;94909.31;;;42.48;13.05
30819;BME280;17546;42.674;23.284;2022-07-23T11:24:10;94901.41;;;42.61;14.60
30819;BME280;17546;42.674;23.284;2022-07-23T11:32:03;94893.69;;;42.95;12.46
30819;BME280;17546;42.674;23.284;2022-07-23T11:37:05;94900.44;;;42.34;12.13
30819;BME280;17546;42.674;23.284;2022-07-23T11:39:32;94882.75;;;42.14;11.96
30819;BME280;17546;42.674;23.284;2022-07-23T11:41:59;94885.59;;;42.03;11.08
30819;BME280;17546;42.674;23.284;2022-07-23T11:47:14;94881.16;;;42.00;11.37
30819;BME280;17546;42.674;23.284;2022-07-23T11:49:53;94880.03;;;42.30;11.21
30819;BME280;17546;42.674;23.284;2022-07-23T11:52:19;94877.47;;;42.67;10.76
30819;BME280;17546;42.674;23.284;2022-07-23T11:57:13;94873.84;;;42.70;10.86
30819;BME280;17546;42.674;23.284;2022-07-23T11:59:39;94864.38;;;41.95;11.55
30819;BME280;17546;42.674;23.284;2022-07-23T12:02:06;94868.38;;;42.28;11.48
30819;BME280;17546;42.674;23.284;2022-07-23T12:04:39;94866.41;;;42.53;10.97
30819;BME280;17546;42.674;23.284;2022-07-23T12:07:35;94871.97;;;42.26;10.59
30819;BME280;17546;42.674;23.284;2022-07-23T12:10:15;94815.94;;;42.24;10.78
30819;BME280;17546;42.674;23.284;2022-07-23T12:12:48;94868.94;;;42.93;11.68
30819;BME280;17546;42.674;23.284;2022-07-23T12:15:32;94862.97;;;42.77;10.67
30819;BME280;17546;42.674;23.284;2022-07-23T12:18:00;94859.50;;;42.99;10.14
30819;BME280;17546;42.674;23.284;2022-07-23T12:20:35;94856.03;;;43.27;10.40
30819;BME280;17546;42.674;23.284;2022-07-23T12:23:04;94856.22;;;42.52;10.07
30819;BME280;17546;42.674;23.284;2022-07-23T12:25:32;94855.19;;;43.08;9.97
30819;BME280;17546;42.674;23.284;2022-07-23T12:28:01;94851.53;;;43.06;10.10
30819;BME280;17546;42.674;23.284;2022-07-23T12:30:34;94843.00;;;43.43;9.69
30819;BME280;17546;42.674;23.284;2022-07-23T12:33:02;94843.47;;;42.96;10.70
30819;BME280;17546;42.674;23.284;2022-07-23T12:35:40;94835.72;;;43.40;10.73
30819;BME280;17546;42.674;23.284;2022-07-23T12:38:10;94835.72;;;43.38;11.07
30819;BME280;17546;42.674;23.284;2022-07-23T12:40:50;94815.34;;;43.50;10.39
30819;BME280;17546;42.674;23.284;2022-07-23T12:43:29;94822.16;;;42.73;10.71
30819;BME280;17546;42.674;23.284;2022-07-23T12:46:09;94819.50;;;43.08;10.89
30819;BME280;17546;42.674;23.284;2022-07-23T12:48:36;94827.00;;;43.54;11.55
30819;BME280;17546;42.674;23.284;2022-07-23T12:51:08;94822.53;;;43.30;10.78
30819;BME280;17546;42.674;23.284;2022-07-23T12:53:44;94817.31;;;43.10;10.52
30819;BME280;17546;42.674;23.284;2022-07-23T12:58:44;94823.69;;;42.78;10.38
30819;BME280;17546;42.674;23.284;2022-07-23T13:04:17;94817.66;;;42.49;9.60
30819;BME280;17546;42.674;23.284;2022-07-23T13:06:58;94806.72;;;42.50;9.82
30819;BME280;17546;42.674;23.284;2022-07-23T13:09:28;94810.63;;;42.85;9.67
30819;BME280;17546;42.674;23.284;2022-07-23T13:11:55;94817.91;;;42.86;12.08
30819;BME280;17546;42.674;23.284;2022-07-23T13:14:21;94806.97;;;42.83;10.24
30819;BME280;17546;42.674;23.284;2022-07-23T13:16:51;94812.72;;;42.75;11.04
30819;BME280;17546;42.674;23.284;2022-07-23T13:19:17;94816.22;;;42.52;10.54
30819;BME280;17546;42.674;23.284;2022-07-23T13:21:43;94813.44;;;42.69;11.29
30819;BME280;17546;42.674;23.284;2022-07-23T13:24:10;94811.28;;;42.76;11.71
30819;BME280;17546;42.674;23.284;2022-07-23T13:26:36;94810.31;;;42.44;10.89
30819;BME280;17546;42.674;23.284;2022-07-23T13:29:02;94807.53;;;42.61;12.32
30819;BME280;17546;42.674;23.284;2022-07-23T13:31:28;94803.28;;;42.76;11.67
30819;BME280;17546;42.674;23.284;2022-07-23T13:33:53;94800.44;;;42.88;10.87
30819;BME280;17546;42.674;23.284;2022-07-23T13:36:19;94797.31;;;42.54;10.12
30819;BME280;17546;42.674;23.284;2022-07-23T13:38:44;94790.09;;;42.63;11.00
30819;BME280;17546;42.674;23.284;2022-07-23T13:41:10;94798.75;;;42.52;9.73